createdAt,value
2022-12-27T00:01:01.233Z,13.60
2022-12-27T00:03:48.348Z,12.40
2022-12-27T00:06:35.994Z,15.45
2022-12-27T00:09:23.188Z,14.45
2022-12-27T00:12:11.010Z,17.83
2022-12-27T00:14:58.112Z,16.67
2022-12-27T00:17:44.933Z,19.58
2022-12-27T00:20:31.664Z,17.17
2022-12-27T00:23:18.490Z,15.30
2022-12-27T00:26:07.025Z,17.30
2022-12-27T00:28:53.790Z,21.08
2022-12-27T00:31:40.359Z,22.77
2022-12-27T00:34:27.159Z,19.17
2022-12-27T00:37:13.974Z,20.33
2022-12-27T00:40:00.723Z,17.75
2022-12-27T00:42:47.494Z,18.58
2022-12-27T00:45:34.606Z,19.77
2022-12-27T00:48:21.233Z,21.02
2022-12-27T00:51:18.067Z,18.92
2022-12-27T00:54:04.897Z,20.52
2022-12-27T00:56:52.713Z,22.55
2022-12-27T00:59:39.479Z,19.77
2022-12-27T01:02:26.211Z,20.63
2022-12-27T01:05:12.583Z,21.67
2022-12-27T01:07:59.384Z,23.58
2022-12-27T01:10:45.512Z,21.40
2022-12-27T01:13:31.814Z,23.77
2022-12-27T01:16:20.181Z,20.90
2022-12-27T01:19:06.982Z,24.60
2022-12-27T01:21:54.077Z,20.58
2022-12-27T01:24:40.878Z,19.75
2022-12-27T01:27:27.629Z,26.60
2022-12-27T01:30:14.818Z,23.35
2022-12-27T01:33:01.967Z,26.38
2022-12-27T01:35:48.503Z,20.42
2022-12-27T01:38:34.867Z,20.90
2022-12-27T01:41:50.970Z,23.27
2022-12-27T01:44:40.473Z,20.42
2022-12-27T01:47:39.995Z,23.73
2022-12-27T01:50:30.626Z,20.33
2022-12-27T01:53:17.273Z,20.35
2022-12-27T01:56:05.923Z,23.00
2022-12-27T01:59:03.498Z,21.23
2022-12-27T02:01:50.955Z,25.23
2022-12-27T02:04:37.496Z,21.55
2022-12-27T02:07:27.799Z,22.27
2022-12-27T02:10:15.017Z,22.20
2022-12-27T02:13:02.581Z,24.60
2022-12-27T02:15:49.277Z,23.30
2022-12-27T02:18:36.078Z,24.67
2022-12-27T02:21:26.179Z,25.08
2022-12-27T02:24:15.916Z,23.30
2022-12-27T02:27:02.671Z,22.38
2022-12-27T02:29:55.533Z,23.60
2022-12-27T02:32:47.981Z,24.00
2022-12-27T02:35:35.017Z,25.37
2022-12-27T02:38:30.906Z,30.10
2022-12-27T02:41:36.217Z,28.80
2022-12-27T02:44:41.547Z,32.53
2022-12-27T02:47:47.765Z,27.30
2022-12-27T02:51:32.751Z,32.40
2022-12-27T02:54:36.639Z,30.85
2022-12-27T02:57:23.895Z,28.75
2022-12-27T03:00:30.318Z,30.75
2022-12-27T03:03:24.677Z,32.60
2022-12-27T03:06:42.061Z,28.90
2022-12-27T03:09:53.834Z,29.05
2022-12-27T03:13:07.199Z,27.38
2022-12-27T03:16:12.437Z,27.60
2022-12-27T03:18:59.375Z,26.17
2022-12-27T03:22:05.835Z,30.10
2022-12-27T03:25:11.941Z,28.70
2022-12-27T03:28:20.202Z,23.95
2022-12-27T03:31:27.811Z,26.08
2022-12-27T03:34:34.829Z,27.75
2022-12-27T03:37:46.768Z,26.88
2022-12-27T03:40:35.379Z,30.58
2022-12-27T03:43:22.147Z,25.67
2022-12-27T03:46:36.685Z,28.13
2022-12-27T03:49:47.465Z,28.10
2022-12-27T03:52:55.364Z,31.77
2022-12-27T03:55:42.204Z,26.60
2022-12-27T03:58:29.317Z,26.92
2022-12-27T04:01:15.991Z,31.98
2022-12-27T04:04:03.131Z,31.08
2022-12-27T04:06:50.337Z,33.83
2022-12-27T04:09:55.156Z,32.97
2022-12-27T04:13:00.110Z,41.97
2022-12-27T04:16:04.881Z,35.95
2022-12-27T04:19:09.997Z,39.58
2022-12-27T04:22:15.154Z,40.22
2022-12-27T04:25:20.409Z,37.35
2022-12-27T04:28:25.732Z,38.55
2022-12-27T04:31:31.023Z,41.55
2022-12-27T04:34:36.242Z,35.72
2022-12-27T04:37:23.418Z,39.13
2022-12-27T04:40:28.527Z,42.33
2022-12-27T04:43:33.559Z,36.42
2022-12-27T04:46:41.312Z,43.50
2022-12-27T04:49:46.712Z,44.90
2022-12-27T04:52:52.419Z,39.70
2022-12-27T04:55:39.523Z,51.10
2022-12-27T04:58:26.769Z,43.47
2022-12-27T05:01:32.485Z,42.10
2022-12-27T05:04:20.101Z,43.00
2022-12-27T05:07:27.068Z,41.92
2022-12-27T05:10:32.258Z,45.03
2022-12-27T05:13:37.342Z,44.05
2022-12-27T05:16:24.693Z,49.10
2022-12-27T05:19:13.197Z,40.13
2022-12-27T05:22:18.078Z,51.05
2022-12-27T05:25:23.457Z,44.58
2022-12-27T05:28:11.916Z,46.55
2022-12-27T05:31:03.273Z,44.30
2022-12-27T05:33:50.806Z,43.13
2022-12-27T05:36:37.815Z,49.10
2022-12-27T05:39:24.736Z,40.72
2022-12-27T05:42:11.700Z,45.75
2022-12-27T05:44:58.353Z,48.20
2022-12-27T05:47:44.823Z,46.30
2022-12-27T05:50:31.207Z,50.50
2022-12-27T05:53:29.581Z,46.00
2022-12-27T05:56:17.199Z,52.88
2022-12-27T05:59:03.956Z,49.42
2022-12-27T06:01:50.630Z,41.30
2022-12-27T06:04:37.871Z,40.75
2022-12-27T06:07:24.891Z,36.40
2022-12-27T06:10:11.858Z,31.63
2022-12-27T06:13:01.040Z,31.17
2022-12-27T06:15:48.067Z,26.15
2022-12-27T06:18:37.567Z,27.60
2022-12-27T06:21:27.743Z,27.17
2022-12-27T06:24:14.664Z,27.90
2022-12-27T06:27:01.521Z,20.92
2022-12-27T06:29:48.480Z,18.10
2022-12-27T06:32:38.435Z,18.83
2022-12-27T06:35:25.177Z,20.45
2022-12-27T06:38:12.277Z,20.65
2022-12-27T06:41:03.263Z,14.27
2022-12-27T06:43:50.062Z,16.23
2022-12-27T06:46:36.764Z,15.40
2022-12-27T06:49:24.058Z,11.57
2022-12-27T06:52:11.092Z,11.98
2022-12-27T06:54:57.523Z,13.30
2022-12-27T06:57:44.315Z,10.13
2022-12-27T07:00:32.784Z,14.70
2022-12-27T07:03:19.804Z,10.32
2022-12-27T07:06:08.692Z,10.57
2022-12-27T07:08:56.061Z,8.88
2022-12-27T07:11:43.122Z,9.60
2022-12-27T07:14:30.397Z,8.95
2022-12-27T07:17:17.719Z,11.52
2022-12-27T07:20:05.491Z,13.73
2022-12-27T07:22:53.608Z,9.13
2022-12-27T07:25:39.890Z,15.05
2022-12-27T07:28:28.003Z,15.30
2022-12-27T07:31:16.929Z,15.75
2022-12-27T07:34:04.740Z,11.10
2022-12-27T07:36:51.446Z,12.90
2022-12-27T07:39:38.257Z,17.50
2022-12-27T07:42:25.284Z,22.13
2022-12-27T07:45:12.206Z,14.50
2022-12-27T07:47:59.311Z,22.33
2022-12-27T07:50:54.415Z,15.27
2022-12-27T08:03:14.798Z,10.07
2022-12-27T08:06:02.300Z,19.08
2022-12-27T08:26:45.657Z,28.20
2022-12-27T08:29:32.205Z,25.02
2022-12-27T08:47:26.705Z,16.92
2022-12-27T08:50:13.669Z,17.50
2022-12-27T08:53:01.668Z,26.30
2022-12-27T08:55:48.437Z,18.30
2022-12-27T08:58:37.138Z,28.38
2022-12-27T09:01:27.170Z,23.42
2022-12-27T09:04:14.794Z,19.05
2022-12-27T09:07:01.831Z,22.20
2022-12-27T09:09:48.333Z,29.20
2022-12-27T09:12:35.015Z,24.05
2022-12-27T09:15:21.625Z,25.55
2022-12-27T09:18:18.568Z,25.25
2022-12-27T09:21:08.890Z,33.28
2022-12-27T09:24:02.813Z,26.63
2022-12-27T09:26:56.375Z,30.05
2022-12-27T09:29:48.699Z,20.55
2022-12-27T09:32:36.332Z,24.98
2022-12-27T09:35:26.458Z,18.42
2022-12-27T09:38:18.964Z,18.52
2022-12-27T09:41:07.639Z,19.38
2022-12-27T09:44:20.515Z,17.52
2022-12-27T09:47:20.425Z,21.63
2022-12-27T09:50:18.723Z,22.48
2022-12-27T09:53:17.560Z,12.52
2022-12-27T09:56:05.472Z,22.90
2022-12-27T09:58:53.086Z,20.08
2022-12-27T10:01:44.736Z,17.77
2022-12-27T10:05:00.886Z,16.42
2022-12-27T10:07:59.486Z,16.63
2022-12-27T10:11:04.882Z,12.32
2022-12-27T10:13:56.221Z,12.30
2022-12-27T10:17:02.802Z,14.93
2022-12-27T10:19:52.187Z,14.30
2022-12-27T10:22:41.875Z,18.25
2022-12-27T10:25:29.369Z,19.33
2022-12-27T10:28:23.621Z,18.15
2022-12-27T10:31:14.830Z,21.48
2022-12-27T10:34:06.193Z,18.67
2022-12-27T10:36:55.916Z,19.27
2022-12-27T10:39:42.542Z,19.45
2022-12-27T10:42:32.857Z,23.67
2022-12-27T10:45:46.424Z,14.82
2022-12-27T10:48:54.668Z,21.55
2022-12-27T10:51:42.105Z,23.73
2022-12-27T10:54:29.967Z,13.50
2022-12-27T10:57:19.634Z,17.33
2022-12-27T11:00:20.484Z,20.10
2022-12-27T11:03:19.980Z,12.70
2022-12-27T11:06:09.429Z,13.18
2022-12-27T11:08:56.266Z,18.58
2022-12-27T11:11:44.631Z,9.38
2022-12-27T11:14:31.632Z,15.38
2022-12-27T11:17:19.817Z,18.42
2022-12-27T11:20:20.831Z,24.77
2022-12-27T11:23:10.362Z,20.70
2022-12-27T11:25:59.135Z,18.98
2022-12-27T11:28:56.455Z,22.40
2022-12-27T11:31:48.243Z,21.60
2022-12-27T11:34:36.905Z,15.25
2022-12-27T11:37:25.380Z,20.13
2022-12-27T11:40:23.085Z,15.45
2022-12-27T11:43:11.520Z,16.00
2022-12-27T11:45:58.492Z,20.75
2022-12-27T11:48:46.843Z,18.70
2022-12-27T11:51:47.681Z,18.02
2022-12-27T11:54:52.996Z,19.77
2022-12-27T11:57:39.303Z,13.02
2022-12-27T12:00:32.133Z,14.95
2022-12-27T12:03:27.427Z,18.52
2022-12-27T12:06:16.630Z,18.83
2022-12-27T12:09:05.998Z,15.63
2022-12-27T12:11:59.011Z,19.33
2022-12-27T12:15:11.924Z,20.33
2022-12-27T12:18:24.121Z,16.30
2022-12-27T12:21:30.652Z,18.25
2022-12-27T12:24:30.355Z,16.42
2022-12-27T12:27:31.158Z,17.70
2022-12-27T12:30:39.125Z,23.67
2022-12-27T12:33:26.503Z,20.17
2022-12-27T12:36:33.289Z,21.25
2022-12-27T12:39:38.734Z,20.80
2022-12-27T12:42:28.572Z,15.82
2022-12-27T12:45:33.833Z,17.88
2022-12-27T12:49:00.387Z,17.65
2022-12-27T12:51:51.402Z,22.98
2022-12-27T12:54:38.231Z,16.67
2022-12-27T12:57:40.061Z,24.08
2022-12-27T13:00:32.372Z,22.10
2022-12-27T13:03:24.628Z,19.10
2022-12-27T13:06:16.872Z,15.07
2022-12-27T13:09:04.250Z,20.17
2022-12-27T13:11:59.658Z,18.20
2022-12-27T13:14:56.367Z,22.55
2022-12-27T13:18:03.611Z,13.73
2022-12-27T13:21:09.120Z,15.95
2022-12-27T13:24:02.744Z,14.27
2022-12-27T13:26:55.602Z,18.15
2022-12-27T13:29:48.118Z,23.93
2022-12-27T13:32:34.359Z,20.98
2022-12-27T13:35:23.693Z,17.13
2022-12-27T13:38:09.766Z,17.27
2022-12-27T13:41:28.036Z,20.67
2022-12-27T13:44:29.027Z,18.83
2022-12-27T13:47:34.317Z,21.88
2022-12-27T13:50:27.883Z,16.20
2022-12-27T13:56:51.454Z,21.30
2022-12-27T13:59:35.145Z,21.52
2022-12-27T14:02:40.771Z,20.88
2022-12-27T14:05:42.368Z,16.02
2022-12-27T14:08:35.268Z,18.13
2022-12-27T14:11:41.232Z,18.05
2022-12-27T14:14:28.805Z,15.27
2022-12-27T14:17:24.619Z,13.70
2022-12-27T14:20:20.258Z,13.88
2022-12-27T14:23:16.315Z,14.52
2022-12-27T14:26:08.579Z,18.48
2022-12-27T14:29:22.645Z,16.52
2022-12-27T14:32:28.510Z,12.20
2022-12-27T14:35:33.638Z,17.20
2022-12-27T14:38:57.333Z,15.43
2022-12-27T14:41:55.657Z,9.38
2022-12-27T14:44:48.150Z,15.15
2022-12-27T14:47:46.986Z,15.75
2022-12-27T14:50:52.159Z,15.73
2022-12-27T14:53:38.551Z,10.90
2022-12-27T14:56:43.752Z,12.95
2022-12-27T14:59:33.997Z,12.05
2022-12-27T15:02:23.536Z,15.00
2022-12-27T15:05:18.395Z,15.82
2022-12-27T15:08:14.904Z,10.43
2022-12-27T15:11:04.075Z,15.43
2022-12-27T15:13:56.301Z,15.95
2022-12-27T15:16:57.826Z,17.73
2022-12-27T15:19:56.652Z,15.70
2022-12-27T15:23:01.578Z,16.88
2022-12-27T15:26:10.926Z,20.80
2022-12-27T15:29:10.518Z,13.10
2022-12-27T15:32:01.273Z,13.35
2022-12-27T15:34:47.442Z,12.82
2022-12-27T15:37:49.102Z,10.13
2022-12-27T15:40:35.360Z,9.52
2022-12-27T15:44:00.718Z,11.18
2022-12-27T15:47:30.942Z,10.95
2022-12-27T15:50:29.593Z,11.35
2022-12-27T15:53:28.560Z,11.52
2022-12-27T15:56:18.172Z,16.48
2022-12-27T16:02:27.091Z,13.10
2022-12-27T16:05:22.851Z,20.77
2022-12-27T16:08:09.504Z,16.08
2022-12-27T16:10:56.618Z,21.75
2022-12-27T16:13:44.639Z,17.92
2022-12-27T16:16:33.300Z,16.90
2022-12-27T16:19:23.078Z,11.82
2022-12-27T16:22:25.125Z,20.35
2022-12-27T16:25:26.835Z,20.83
2022-12-27T16:28:28.212Z,16.75
2022-12-27T16:31:15.456Z,14.00
2022-12-27T16:34:25.885Z,15.05
2022-12-27T16:37:24.647Z,13.48
2022-12-27T16:40:20.284Z,9.65
2022-12-27T16:43:07.183Z,15.85
2022-12-27T16:46:05.298Z,21.67
2022-12-27T16:49:11.255Z,16.25
2022-12-27T16:52:07.577Z,18.08
2022-12-27T16:55:12.756Z,13.73
2022-12-27T16:58:18.737Z,11.68
2022-12-27T17:01:06.706Z,17.13
2022-12-27T17:03:54.430Z,16.40
2022-12-27T17:06:41.878Z,12.15
2022-12-27T17:09:40.379Z,10.98
2022-12-27T17:12:27.918Z,15.95
2022-12-27T17:15:14.554Z,12.60
2022-12-27T17:18:07.779Z,17.05
2022-12-27T17:21:00.147Z,13.20
2022-12-27T17:23:48.919Z,14.77
2022-12-27T17:26:51.170Z,14.43
2022-12-27T17:30:03.545Z,18.75
2022-12-27T17:33:08.880Z,29.85
2022-12-27T17:36:07.971Z,13.10
2022-12-27T17:38:54.383Z,17.13
2022-12-27T17:42:18.079Z,25.63
2022-12-27T17:45:07.815Z,13.55
2022-12-27T17:48:03.321Z,14.68
2022-12-27T17:54:44.994Z,25.10
2022-12-27T17:57:49.725Z,17.05
2022-12-27T18:00:39.959Z,16.95
2022-12-27T18:03:32.895Z,26.52
2022-12-27T18:06:20.168Z,23.73
2022-12-27T18:09:06.944Z,17.48
2022-12-27T18:11:53.754Z,14.70
2022-12-27T18:14:39.963Z,22.92
2022-12-27T18:17:29.333Z,19.92
2022-12-27T18:20:28.593Z,14.57
2022-12-27T18:23:18.641Z,22.45
2022-12-27T18:26:13.469Z,20.58
2022-12-27T18:29:00.149Z,13.88
2022-12-27T18:31:50.607Z,21.48
2022-12-27T18:34:55.947Z,17.05
2022-12-27T18:37:42.305Z,12.85
2022-12-27T18:40:28.738Z,16.80
2022-12-27T18:43:16.458Z,17.05
2022-12-27T18:46:03.572Z,16.65
2022-12-27T18:48:50.020Z,18.42
2022-12-27T18:51:38.241Z,18.20
2022-12-27T18:54:31.192Z,15.00
2022-12-27T18:57:31.892Z,19.25
2022-12-27T19:00:25.366Z,15.95
2022-12-27T19:03:16.104Z,25.80
2022-12-27T19:06:07.641Z,20.30
2022-12-27T19:08:54.125Z,16.98
2022-12-27T19:11:40.272Z,15.73
2022-12-27T19:14:28.228Z,18.90
2022-12-27T19:17:23.500Z,17.52
2022-12-27T19:20:19.907Z,18.88
2022-12-27T19:23:08.872Z,19.70
2022-12-27T19:26:02.825Z,19.00
2022-12-27T19:29:01.016Z,17.33
2022-12-27T19:32:01.180Z,14.75
2022-12-27T19:34:48.620Z,10.95
2022-12-27T19:37:35.853Z,21.73
2022-12-27T19:40:25.663Z,16.70
2022-12-27T19:43:14.260Z,16.13
2022-12-27T19:46:00.685Z,21.45
2022-12-27T19:49:07.662Z,17.42
2022-12-27T19:51:56.292Z,15.90
2022-12-27T19:54:43.533Z,17.65
2022-12-27T19:57:30.429Z,13.63
2022-12-27T20:00:17.498Z,14.98
2022-12-27T20:03:04.636Z,18.48
2022-12-27T20:06:14.268Z,17.48
2022-12-27T20:08:57.365Z,19.52
2022-12-27T20:11:44.170Z,16.13
2022-12-27T20:14:32.078Z,17.55
2022-12-27T20:17:18.442Z,18.48
2022-12-27T20:20:04.966Z,16.38
2022-12-27T20:22:51.409Z,22.65
2022-12-27T20:25:38.793Z,19.42
2022-12-27T20:28:25.456Z,16.48
2022-12-27T20:31:13.804Z,20.95
2022-12-27T20:34:00.011Z,29.58
2022-12-27T20:36:46.173Z,22.48
2022-12-27T20:39:32.773Z,14.48
2022-12-27T20:42:19.135Z,18.80
2022-12-27T20:45:05.433Z,16.08
2022-12-27T20:47:52.154Z,20.73
2022-12-27T20:50:39.113Z,19.10
2022-12-27T20:53:28.108Z,18.27
2022-12-27T20:56:15.009Z,16.77
2022-12-27T20:59:01.735Z,15.57
2022-12-27T21:01:53.022Z,17.25
2022-12-27T21:04:43.117Z,20.23
2022-12-27T21:07:29.374Z,13.82
2022-12-27T21:10:15.801Z,21.92
2022-12-27T21:13:02.338Z,15.52
2022-12-27T21:15:48.862Z,20.52
2022-12-27T21:18:35.423Z,16.27
2022-12-27T21:21:26.763Z,18.10
2022-12-27T21:24:14.556Z,23.73
2022-12-27T21:27:01.118Z,13.38
2022-12-27T21:29:47.236Z,11.93
2022-12-27T21:32:33.557Z,17.67
2022-12-27T21:35:19.665Z,13.05
2022-12-27T21:38:05.773Z,16.42
2022-12-27T21:40:59.082Z,13.43
2022-12-27T21:43:45.955Z,18.13
2022-12-27T21:46:37.090Z,13.02
2022-12-27T21:49:23.734Z,16.55
2022-12-27T21:52:09.948Z,24.67
2022-12-27T21:54:56.528Z,23.02
2022-12-27T21:57:42.902Z,12.95
2022-12-27T22:00:28.968Z,14.88
2022-12-27T22:03:15.263Z,18.02
2022-12-27T22:06:10.723Z,17.92
2022-12-27T22:09:01.025Z,13.68
2022-12-27T22:11:47.545Z,18.27
2022-12-27T22:14:36.971Z,14.80
2022-12-27T22:17:23.746Z,17.92
2022-12-27T22:20:10.532Z,18.13
2022-12-27T22:22:57.765Z,18.42
2022-12-27T22:25:44.613Z,20.23
2022-12-27T22:28:30.915Z,17.58
2022-12-27T22:31:25.142Z,14.93
2022-12-27T22:34:11.955Z,12.38
2022-12-27T22:36:58.076Z,18.15
2022-12-27T22:39:44.172Z,15.30
2022-12-27T22:42:30.854Z,15.52
2022-12-27T22:45:17.257Z,11.18
2022-12-27T22:48:03.390Z,12.68
2022-12-27T22:50:49.603Z,16.65
2022-12-27T22:53:35.973Z,14.95
2022-12-27T22:56:23.443Z,23.15
2022-12-27T22:59:10.769Z,18.77
2022-12-27T23:01:57.303Z,13.70
2022-12-27T23:04:43.508Z,17.95
2022-12-27T23:08:04.960Z,13.48
2022-12-27T23:10:36.359Z,18.23
2022-12-27T23:13:24.101Z,17.50
2022-12-27T23:16:10.542Z,20.88
2022-12-27T23:18:56.889Z,15.55
2022-12-27T23:21:43.040Z,26.23
2022-12-27T23:24:29.254Z,16.17
2022-12-27T23:27:15.317Z,15.93
2022-12-27T23:30:01.426Z,14.57
2022-12-27T23:32:47.589Z,22.05
2022-12-27T23:35:35.142Z,12.77
2022-12-27T23:38:21.131Z,17.55
2022-12-27T23:41:08.584Z,17.23
2022-12-27T23:43:56.219Z,14.05
2022-12-27T23:46:42.887Z,14.30
2022-12-27T23:49:29.856Z,17.33
2022-12-27T23:52:16.191Z,13.43
2022-12-27T23:55:02.505Z,17.23
2022-12-27T23:57:48.731Z,18.05
